layui.com alexa rank chart, layui.com alexa rank daily changes

layui.com alexa rank chart, layui.com alexa rank daily changes

layui.com
Actual rank:
5 795

RANK HISTORY

Date Rank Diff
2018/11/18 5 795 -792
2018/11/17 6 587 -2 630
2018/11/16 9 217 +3 458
2018/11/15 5 759 -1 005
2018/11/14 6 764 -3 502
2018/11/13 10 266 +5 964
2018/11/12 4 302 -2 417
2018/11/11 6 719 -1 519
2018/11/10 8 238 +2 993
2018/11/09 5 245 -1 116
2018/11/08 6 361 -3 188
2018/11/07 9 549 +737
2018/11/06 8 812 -3 993
2018/11/05 12 805 +4 874
2018/11/04 7 931 +1 432
2018/11/03 6 499 +1 945
2018/11/02 4 554 -3 737
2018/11/01 8 291 +355
2018/10/31 7 936 -29 016
2018/10/30 36 952 +24 730
2018/10/29 12 222 -799
2018/10/28 13 021 +657
2018/10/27 12 364 +1 333
2018/10/26 11 031 +3 681
2018/10/25 7 350 +375
2018/10/24 6 975 -6 882
2018/10/23 13 857 +3 027
2018/10/22 10 830 +5 977
2018/10/21 4 853 -2 846
2018/10/20 7 699 +1 843
2018/10/19 5 856 -86
2018/10/18 5 942 +557
2018/10/17 5 385 -10 969
2018/10/16 16 354 +7 303
2018/10/15 9 051 +3 927
2018/10/14 5 124 -5 215
2018/10/13 10 339 +3 529
2018/10/12 6 810 -2 602
2018/10/11 9 412 -1 316
2018/10/10 10 728 -1 773
2018/10/09 12 501 -514
2018/10/08 13 015 -2 517
2018/10/07 15 532 -14 706
2018/10/06 30 238 +7 636
2018/10/05 22 602 -46 750
2018/10/04 69 352 +31 285
2018/10/03 38 067 +26 245
2018/10/02 11 822 +2 750
2018/10/01 9 072 -151
2018/09/30 9 223 +1 260
2018/09/29 7 963 +790
2018/09/28 7 173 -4 555
2018/09/27 11 728 -18 093
2018/09/26 29 821 +21 931
2018/09/25 7 890 -4 380
2018/09/24 12 270 +8 560
2018/09/23 3 710 -3 567
2018/09/22 7 277 -579
2018/09/21 7 856 +1 565
2018/09/20 6 291 -1 127
2018/09/19 7 418

WIDGET FOR YOUR SITE

DOMAINS WITH THE NEAREST RANK

Domain Rank
njuskalo.hr 5 790
sunnyplayer.com 5 791
baby.ru 5 792
avon.ru 5 793
converto.io 5 794
layui.com 5 795
voat.co 5 796
mediaad.org 5 797
centrum.sk 5 798
izooto.com 5 799
dolartoday.com 5 800

DOMAINS WITH THE NEAREST RANK BY TLD .com

Domain Rank
baixing.com 5 784
home77.com 5 786
360kan.com 5 788
pressreader.com 5 789
sunnyplayer.com 5 791
layui.com 5 795
izooto.com 5 799
dolartoday.com 5 800
xvidzz.com 5 801
fontspace.com 5 803
massdrop.com 5 804